sensor_id;sensor_type;location;lat;lon;timestamp;pressure;altitude;pressure_sealevel;temperature;humidity
13209;BME280;6669;42.678;23.332;2024-01-06T00:01:31;94390.09;;;5.97;100.00
13209;BME280;6669;42.678;23.332;2024-01-06T00:03:59;94389.66;;;6.02;100.00
13209;BME280;6669;42.678;23.332;2024-01-06T00:06:27;94382.31;;;6.07;100.00
13209;BME280;6669;42.678;23.332;2024-01-06T00:08:57;94372.44;;;6.02;100.00
13209;BME280;6669;42.678;23.332;2024-01-06T00:11:25;94359.91;;;6.08;100.00
13209;BME280;6669;42.678;23.332;2024-01-06T00:13:53;94348.03;;;6.15;100.00
13209;BME280;6669;42.678;23.332;2024-01-06T00:16:21;94350.94;;;6.20;100.00
13209;BME280;6669;42.678;23.332;2024-01-06T00:18:52;94374.56;;;6.07;100.00
13209;BME280;6669;42.678;23.332;2024-01-06T00:21:21;94368.34;;;6.18;100.00
13209;BME280;6669;42.678;23.332;2024-01-06T00:23:49;94396.75;;;6.18;100.00
13209;BME280;6669;42.678;23.332;2024-01-06T00:26:19;94382.28;;;6.25;100.00
13209;BME280;6669;42.678;23.332;2024-01-06T00:28:47;94377.31;;;6.32;100.00
13209;BME280;6669;42.678;23.332;2024-01-06T00:31:16;94370.69;;;6.29;100.00
13209;BME280;6669;42.678;23.332;2024-01-06T00:33:44;94382.84;;;6.37;100.00
13209;BME280;6669;42.678;23.332;2024-01-06T00:36:13;94388.44;;;6.32;100.00
13209;BME280;6669;42.678;23.332;2024-01-06T00:38:41;94381.19;;;6.36;100.00
13209;BME280;6669;42.678;23.332;2024-01-06T00:41:09;94370.78;;;6.19;100.00
13209;BME280;6669;42.678;23.332;2024-01-06T00:43:39;94386.25;;;6.19;100.00
13209;BME280;6669;42.678;23.332;2024-01-06T00:46:07;94394.59;;;6.13;100.00
13209;BME280;6669;42.678;23.332;2024-01-06T00:48:36;94390.78;;;5.99;100.00
13209;BME280;6669;42.678;23.332;2024-01-06T00:51:04;94368.78;;;5.95;100.00
13209;BME280;6669;42.678;23.332;2024-01-06T00:53:32;94355.19;;;5.85;100.00
13209;BME280;6669;42.678;23.332;2024-01-06T00:56:00;94375.28;;;5.81;100.00
13209;BME280;6669;42.678;23.332;2024-01-06T00:58:29;94371.75;;;5.82;100.00
13209;BME280;6669;42.678;23.332;2024-01-06T01:00:58;94370.38;;;5.88;100.00
13209;BME280;6669;42.678;23.332;2024-01-06T01:03:27;94364.97;;;5.99;100.00
13209;BME280;6669;42.678;23.332;2024-01-06T01:05:55;94375.81;;;6.03;100.00
13209;BME280;6669;42.678;23.332;2024-01-06T01:08:24;94368.28;;;5.92;100.00
13209;BME280;6669;42.678;23.332;2024-01-06T01:10:52;94377.22;;;5.79;100.00
13209;BME280;6669;42.678;23.332;2024-01-06T01:13:21;94374.41;;;5.72;100.00
13209;BME280;6669;42.678;23.332;2024-01-06T01:15:49;94371.47;;;5.67;100.00
13209;BME280;6669;42.678;23.332;2024-01-06T01:18:19;94367.13;;;5.68;100.00
13209;BME280;6669;42.678;23.332;2024-01-06T01:20:47;94363.53;;;5.61;100.00
13209;BME280;6669;42.678;23.332;2024-01-06T01:23:15;94360.63;;;5.64;100.00
13209;BME280;6669;42.678;23.332;2024-01-06T01:25:43;94359.41;;;5.68;100.00
13209;BME280;6669;42.678;23.332;2024-01-06T01:28:13;94366.84;;;5.71;100.00
13209;BME280;6669;42.678;23.332;2024-01-06T01:30:41;94360.50;;;5.65;100.00
13209;BME280;6669;42.678;23.332;2024-01-06T01:33:09;94356.47;;;5.63;100.00
13209;BME280;6669;42.678;23.332;2024-01-06T01:35:39;94342.59;;;5.82;100.00
13209;BME280;6669;42.678;23.332;2024-01-06T01:38:07;94348.78;;;5.71;100.00
13209;BME280;6669;42.678;23.332;2024-01-06T01:40:36;94349.13;;;5.76;100.00
13209;BME280;6669;42.678;23.332;2024-01-06T01:43:04;94346.78;;;5.83;100.00
13209;BME280;6669;42.678;23.332;2024-01-06T01:45:33;94346.03;;;5.72;100.00
13209;BME280;6669;42.678;23.332;2024-01-06T01:48:02;94344.56;;;5.70;100.00
13209;BME280;6669;42.678;23.332;2024-01-06T01:50:30;94333.81;;;5.75;100.00
13209;BME280;6669;42.678;23.332;2024-01-06T01:53:00;94327.47;;;5.87;100.00
13209;BME280;6669;42.678;23.332;2024-01-06T01:55:28;94322.84;;;5.91;100.00
13209;BME280;6669;42.678;23.332;2024-01-06T01:57:57;94320.84;;;6.02;100.00
13209;BME280;6669;42.678;23.332;2024-01-06T02:00:25;94330.41;;;6.10;100.00
13209;BME280;6669;42.678;23.332;2024-01-06T02:02:54;94331.06;;;6.12;100.00
13209;BME280;6669;42.678;23.332;2024-01-06T02:05:22;94324.91;;;6.13;100.00
13209;BME280;6669;42.678;23.332;2024-01-06T02:07:50;94319.28;;;6.10;100.00
13209;BME280;6669;42.678;23.332;2024-01-06T02:10:20;94315.97;;;5.99;100.00
13209;BME280;6669;42.678;23.332;2024-01-06T02:12:49;94307.94;;;6.02;100.00
13209;BME280;6669;42.678;23.332;2024-01-06T02:15:19;94307.09;;;6.02;100.00
13209;BME280;6669;42.678;23.332;2024-01-06T02:17:47;94298.50;;;5.93;100.00
13209;BME280;6669;42.678;23.332;2024-01-06T02:20:16;94288.41;;;6.00;100.00
13209;BME280;6669;42.678;23.332;2024-01-06T02:22:48;94292.47;;;5.84;100.00
13209;BME280;6669;42.678;23.332;2024-01-06T02:25:18;94302.06;;;5.56;100.00
13209;BME280;6669;42.678;23.332;2024-01-06T02:27:46;94294.56;;;5.45;100.00
13209;BME280;6669;42.678;23.332;2024-01-06T02:30:14;94276.56;;;5.71;100.00
13209;BME280;6669;42.678;23.332;2024-01-06T02:32:43;94278.34;;;5.70;100.00
13209;BME280;6669;42.678;23.332;2024-01-06T02:35:11;94271.72;;;5.68;100.00
13209;BME280;6669;42.678;23.332;2024-01-06T02:37:40;94280.19;;;5.78;100.00
13209;BME280;6669;42.678;23.332;2024-01-06T02:40:11;94288.88;;;5.77;100.00
13209;BME280;6669;42.678;23.332;2024-01-06T02:42:40;94275.53;;;5.82;100.00
13209;BME280;6669;42.678;23.332;2024-01-06T02:45:09;94263.69;;;5.71;100.00
13209;BME280;6669;42.678;23.332;2024-01-06T02:47:37;94264.59;;;5.62;100.00
13209;BME280;6669;42.678;23.332;2024-01-06T02:50:06;94271.38;;;5.27;100.00
13209;BME280;6669;42.678;23.332;2024-01-06T02:52:35;94271.47;;;5.35;100.00
13209;BME280;6669;42.678;23.332;2024-01-06T02:55:03;94264.97;;;5.49;100.00
13209;BME280;6669;42.678;23.332;2024-01-06T02:57:33;94264.50;;;5.53;100.00
13209;BME280;6669;42.678;23.332;2024-01-06T03:00:03;94256.94;;;5.52;100.00
13209;BME280;6669;42.678;23.332;2024-01-06T03:02:31;94247.28;;;5.54;100.00
13209;BME280;6669;42.678;23.332;2024-01-06T03:04:59;94246.63;;;5.52;100.00
13209;BME280;6669;42.678;23.332;2024-01-06T03:07:28;94247.88;;;5.48;100.00
13209;BME280;6669;42.678;23.332;2024-01-06T03:09:56;94247.88;;;5.48;100.00
13209;BME280;6669;42.678;23.332;2024-01-06T03:12:24;94247.00;;;5.39;100.00
13209;BME280;6669;42.678;23.332;2024-01-06T03:14:54;94245.91;;;5.42;100.00
13209;BME280;6669;42.678;23.332;2024-01-06T03:17:22;94246.56;;;5.44;100.00
13209;BME280;6669;42.678;23.332;2024-01-06T03:19:51;94241.69;;;5.40;100.00
13209;BME280;6669;42.678;23.332;2024-01-06T03:22:20;94247.16;;;5.37;100.00
13209;BME280;6669;42.678;23.332;2024-01-06T03:24:48;94241.41;;;5.44;100.00
13209;BME280;6669;42.678;23.332;2024-01-06T03:27:16;94230.78;;;5.47;100.00
13209;BME280;6669;42.678;23.332;2024-01-06T03:29:44;94236.09;;;5.45;100.00
13209;BME280;6669;42.678;23.332;2024-01-06T03:32:14;94244.31;;;5.22;100.00
13209;BME280;6669;42.678;23.332;2024-01-06T03:34:43;94246.22;;;5.20;100.00
13209;BME280;6669;42.678;23.332;2024-01-06T03:37:11;94233.75;;;5.34;100.00
13209;BME280;6669;42.678;23.332;2024-01-06T03:39:39;94243.13;;;5.35;100.00
13209;BME280;6669;42.678;23.332;2024-01-06T03:42:07;94232.81;;;5.35;100.00
13209;BME280;6669;42.678;23.332;2024-01-06T03:44:36;94233.53;;;5.45;100.00
13209;BME280;6669;42.678;23.332;2024-01-06T03:47:04;94232.81;;;5.61;100.00
13209;BME280;6669;42.678;23.332;2024-01-06T03:49:33;94246.81;;;5.59;100.00
13209;BME280;6669;42.678;23.332;2024-01-06T03:52:02;94241.91;;;5.47;100.00
13209;BME280;6669;42.678;23.332;2024-01-06T03:54:30;94245.34;;;5.56;100.00
13209;BME280;6669;42.678;23.332;2024-01-06T03:56:58;94227.63;;;5.53;100.00
13209;BME280;6669;42.678;23.332;2024-01-06T03:59:27;94227.19;;;5.57;100.00
13209;BME280;6669;42.678;23.332;2024-01-06T04:01:55;94242.41;;;5.51;100.00
13209;BME280;6669;42.678;23.332;2024-01-06T04:04:23;94228.38;;;5.45;100.00
13209;BME280;6669;42.678;23.332;2024-01-06T04:06:53;94244.78;;;5.44;100.00
13209;BME280;6669;42.678;23.332;2024-01-06T04:09:21;94237.56;;;5.48;100.00
13209;BME280;6669;42.678;23.332;2024-01-06T04:11:49;94228.38;;;5.45;100.00
13209;BME280;6669;42.678;23.332;2024-01-06T04:14:17;94246.22;;;5.38;100.00
13209;BME280;6669;42.678;23.332;2024-01-06T04:16:46;94233.91;;;5.32;100.00
13209;BME280;6669;42.678;23.332;2024-01-06T04:19:14;94233.97;;;5.40;100.00
13209;BME280;6669;42.678;23.332;2024-01-06T04:21:42;94218.88;;;5.46;100.00
13209;BME280;6669;42.678;23.332;2024-01-06T04:24:11;94241.53;;;5.42;100.00
13209;BME280;6669;42.678;23.332;2024-01-06T04:26:39;94227.34;;;5.38;100.00
13209;BME280;6669;42.678;23.332;2024-01-06T04:29:07;94227.94;;;5.32;100.00
13209;BME280;6669;42.678;23.332;2024-01-06T04:31:35;94236.03;;;5.37;100.00
13209;BME280;6669;42.678;23.332;2024-01-06T04:34:04;94236.66;;;5.31;100.00
13209;BME280;6669;42.678;23.332;2024-01-06T04:36:32;94246.97;;;5.31;100.00
13209;BME280;6669;42.678;23.332;2024-01-06T04:39:00;94251.97;;;5.32;100.00
13209;BME280;6669;42.678;23.332;2024-01-06T04:41:30;94252.75;;;5.33;100.00
13209;BME280;6669;42.678;23.332;2024-01-06T04:43:58;94247.38;;;5.44;100.00
13209;BME280;6669;42.678;23.332;2024-01-06T04:46:26;94256.16;;;5.33;100.00
13209;BME280;6669;42.678;23.332;2024-01-06T04:48:55;94246.81;;;5.32;100.00
13209;BME280;6669;42.678;23.332;2024-01-06T04:51:23;94247.44;;;5.34;100.00
13209;BME280;6669;42.678;23.332;2024-01-06T04:53:51;94245.97;;;5.32;100.00
13209;BME280;6669;42.678;23.332;2024-01-06T04:56:19;94257.03;;;5.24;100.00
13209;BME280;6669;42.678;23.332;2024-01-06T04:58:49;94254.69;;;5.31;100.00
13209;BME280;6669;42.678;23.332;2024-01-06T05:01:17;94265.72;;;5.23;100.00
13209;BME280;6669;42.678;23.332;2024-01-06T05:03:46;94258.78;;;4.87;100.00
13209;BME280;6669;42.678;23.332;2024-01-06T05:06:14;94239.97;;;5.05;100.00
13209;BME280;6669;42.678;23.332;2024-01-06T05:08:42;94236.28;;;4.89;100.00
13209;BME280;6669;42.678;23.332;2024-01-06T05:11:11;94231.81;;;4.91;100.00
13209;BME280;6669;42.678;23.332;2024-01-06T05:13:40;94228.56;;;4.89;100.00
13209;BME280;6669;42.678;23.332;2024-01-06T05:16:09;94249.34;;;4.60;100.00
13209;BME280;6669;42.678;23.332;2024-01-06T05:18:38;94230.91;;;4.65;100.00
13209;BME280;6669;42.678;23.332;2024-01-06T05:21:06;94237.81;;;4.82;100.00
13209;BME280;6669;42.678;23.332;2024-01-06T05:23:35;94235.22;;;4.82;100.00
13209;BME280;6669;42.678;23.332;2024-01-06T05:26:03;94234.91;;;4.49;100.00
13209;BME280;6669;42.678;23.332;2024-01-06T05:28:32;94217.06;;;4.66;100.00
13209;BME280;6669;42.678;23.332;2024-01-06T05:31:00;94219.03;;;4.72;100.00
13209;BME280;6669;42.678;23.332;2024-01-06T05:33:30;94209.78;;;4.61;100.00
13209;BME280;6669;42.678;23.332;2024-01-06T05:35:58;94213.53;;;4.67;100.00
13209;BME280;6669;42.678;23.332;2024-01-06T05:38:26;94215.16;;;4.68;100.00
13209;BME280;6669;42.678;23.332;2024-01-06T05:40:54;94190.88;;;4.52;100.00
13209;BME280;6669;42.678;23.332;2024-01-06T05:43:23;94234.50;;;4.44;100.00
13209;BME280;6669;42.678;23.332;2024-01-06T05:45:51;94211.13;;;4.37;100.00
13209;BME280;6669;42.678;23.332;2024-01-06T05:48:19;94215.28;;;4.48;100.00
13209;BME280;6669;42.678;23.332;2024-01-06T05:50:49;94212.78;;;4.56;100.00
13209;BME280;6669;42.678;23.332;2024-01-06T05:53:17;94207.34;;;4.60;100.00
13209;BME280;6669;42.678;23.332;2024-01-06T05:55:46;94199.13;;;4.56;100.00
13209;BME280;6669;42.678;23.332;2024-01-06T05:58:14;94214.78;;;4.63;100.00
13209;BME280;6669;42.678;23.332;2024-01-06T06:00:42;94216.63;;;4.70;100.00
13209;BME280;6669;42.678;23.332;2024-01-06T06:03:12;94203.97;;;4.77;100.00
13209;BME280;6669;42.678;23.332;2024-01-06T06:05:41;94219.13;;;4.80;100.00
13209;BME280;6669;42.678;23.332;2024-01-06T06:08:10;94207.75;;;4.83;100.00
13209;BME280;6669;42.678;23.332;2024-01-06T06:10:38;94208.25;;;4.86;100.00
13209;BME280;6669;42.678;23.332;2024-01-06T06:13:27;94192.06;;;4.76;100.00
13209;BME280;6669;42.678;23.332;2024-01-06T06:15:55;94196.28;;;4.95;100.00
13209;BME280;6669;42.678;23.332;2024-01-06T06:18:24;94204.69;;;4.87;100.00
13209;BME280;6669;42.678;23.332;2024-01-06T06:20:53;94212.22;;;4.81;100.00
13209;BME280;6669;42.678;23.332;2024-01-06T06:23:22;94208.25;;;4.86;100.00
13209;BME280;6669;42.678;23.332;2024-01-06T06:25:50;94206.31;;;4.88;100.00
13209;BME280;6669;42.678;23.332;2024-01-06T06:28:19;94216.94;;;4.85;100.00
13209;BME280;6669;42.678;23.332;2024-01-06T06:30:47;94218.75;;;4.57;100.00
13209;BME280;6669;42.678;23.332;2024-01-06T06:33:16;94216.56;;;4.80;100.00
13209;BME280;6669;42.678;23.332;2024-01-06T06:35:44;94227.81;;;4.79;100.00
13209;BME280;6669;42.678;23.332;2024-01-06T06:38:12;94234.28;;;4.83;100.00
13209;BME280;6669;42.678;23.332;2024-01-06T06:40:42;94211.03;;;4.75;100.00
13209;BME280;6669;42.678;23.332;2024-01-06T06:43:10;94209.00;;;4.79;100.00
13209;BME280;6669;42.678;23.332;2024-01-06T06:45:40;94217.28;;;4.54;100.00
13209;BME280;6669;42.678;23.332;2024-01-06T06:48:09;94227.94;;;4.60;100.00
13209;BME280;6669;42.678;23.332;2024-01-06T06:50:37;94228.25;;;4.74;100.00
13209;BME280;6669;42.678;23.332;2024-01-06T06:53:07;94217.50;;;4.79;100.00
13209;BME280;6669;42.678;23.332;2024-01-06T06:55:36;94219.50;;;4.85;100.00
13209;BME280;6669;42.678;23.332;2024-01-06T06:58:06;94220.81;;;4.89;100.00
13209;BME280;6669;42.678;23.332;2024-01-06T07:00:34;94223.72;;;4.86;100.00
13209;BME280;6669;42.678;23.332;2024-01-06T07:03:02;94193.25;;;4.82;100.00
13209;BME280;6669;42.678;23.332;2024-01-06T07:05:31;94221.63;;;4.72;100.00
13209;BME280;6669;42.678;23.332;2024-01-06T07:08:00;94206.63;;;4.67;100.00
13209;BME280;6669;42.678;23.332;2024-01-06T07:10:28;94214.50;;;4.84;100.00
13209;BME280;6669;42.678;23.332;2024-01-06T07:12:56;94224.19;;;4.72;100.00
13209;BME280;6669;42.678;23.332;2024-01-06T07:15:26;94201.13;;;4.80;100.00
13209;BME280;6669;42.678;23.332;2024-01-06T07:17:54;94224.66;;;4.85;100.00
13209;BME280;6669;42.678;23.332;2024-01-06T07:20:22;94189.56;;;4.84;100.00
13209;BME280;6669;42.678;23.332;2024-01-06T07:22:51;94212.09;;;5.00;100.00
13209;BME280;6669;42.678;23.332;2024-01-06T07:25:19;94202.34;;;5.12;100.00
13209;BME280;6669;42.678;23.332;2024-01-06T07:27:47;94202.41;;;5.20;100.00
13209;BME280;6669;42.678;23.332;2024-01-06T07:30:20;94201.06;;;5.34;100.00
13209;BME280;6669;42.678;23.332;2024-01-06T07:32:50;94208.41;;;5.47;100.00
13209;BME280;6669;42.678;23.332;2024-01-06T07:35:19;94213.88;;;5.44;100.00
13209;BME280;6669;42.678;23.332;2024-01-06T07:37:47;94184.47;;;5.37;100.00
13209;BME280;6669;42.678;23.332;2024-01-06T07:40:15;94212.72;;;5.20;100.00
13209;BME280;6669;42.678;23.332;2024-01-06T07:42:44;94184.47;;;5.37;100.00
13209;BME280;6669;42.678;23.332;2024-01-06T07:45:12;94206.72;;;5.38;100.00
13209;BME280;6669;42.678;23.332;2024-01-06T07:47:41;94201.66;;;5.46;100.00
13209;BME280;6669;42.678;23.332;2024-01-06T07:50:11;94198.00;;;5.57;100.00
13209;BME280;6669;42.678;23.332;2024-01-06T07:52:39;94194.97;;;5.62;100.00
13209;BME280;6669;42.678;23.332;2024-01-06T07:55:08;94209.38;;;5.72;100.00
13209;BME280;6669;42.678;23.332;2024-01-06T07:57:36;94205.53;;;5.77;100.00
13209;BME280;6669;42.678;23.332;2024-01-06T08:00:05;94203.00;;;5.85;100.00
13209;BME280;6669;42.678;23.332;2024-01-06T08:02:34;94216.34;;;5.80;100.00
13209;BME280;6669;42.678;23.332;2024-01-06T08:05:02;94192.25;;;5.98;100.00
13209;BME280;6669;42.678;23.332;2024-01-06T08:07:31;94217.06;;;5.91;100.00
13209;BME280;6669;42.678;23.332;2024-01-06T08:10:00;94204.16;;;5.91;100.00
13209;BME280;6669;42.678;23.332;2024-01-06T08:12:32;94220.19;;;5.76;100.00
13209;BME280;6669;42.678;23.332;2024-01-06T08:15:01;94214.88;;;5.78;100.00
13209;BME280;6669;42.678;23.332;2024-01-06T08:17:29;94191.91;;;5.93;100.00
13209;BME280;6669;42.678;23.332;2024-01-06T08:19:57;94216.69;;;5.85;100.00
13209;BME280;6669;42.678;23.332;2024-01-06T08:22:26;94181.28;;;5.96;100.00
13209;BME280;6669;42.678;23.332;2024-01-06T08:24:56;94187.81;;;6.08;100.00
13209;BME280;6669;42.678;23.332;2024-01-06T08:27:24;94210.75;;;6.19;100.00
13209;BME280;6669;42.678;23.332;2024-01-06T08:29:53;94187.25;;;6.31;100.00
13209;BME280;6669;42.678;23.332;2024-01-06T08:32:21;94216.69;;;6.12;100.00
13209;BME280;6669;42.678;23.332;2024-01-06T08:34:49;94201.44;;;6.27;100.00
13209;BME280;6669;42.678;23.332;2024-01-06T08:37:17;94184.72;;;6.39;100.00
13209;BME280;6669;42.678;23.332;2024-01-06T08:39:46;94207.78;;;6.49;100.00
13209;BME280;6669;42.678;23.332;2024-01-06T08:42:16;94214.88;;;6.38;100.00
13209;BME280;6669;42.678;23.332;2024-01-06T08:44:45;94187.97;;;6.49;100.00
13209;BME280;6669;42.678;23.332;2024-01-06T08:47:13;94206.09;;;6.74;100.00
13209;BME280;6669;42.678;23.332;2024-01-06T08:49:42;94212.56;;;6.86;100.00
13209;BME280;6669;42.678;23.332;2024-01-06T08:52:10;94204.19;;;6.93;100.00
13209;BME280;6669;42.678;23.332;2024-01-06T08:54:38;94196.44;;;7.01;100.00
13209;BME280;6669;42.678;23.332;2024-01-06T08:57:06;94205.31;;;6.90;100.00
13209;BME280;6669;42.678;23.332;2024-01-06T08:59:36;94193.34;;;6.97;100.00
13209;BME280;6669;42.678;23.332;2024-01-06T09:02:06;94191.28;;;7.01;100.00
13209;BME280;6669;42.678;23.332;2024-01-06T09:04:35;94198.41;;;6.99;100.00
13209;BME280;6669;42.678;23.332;2024-01-06T09:07:03;94190.97;;;7.04;100.00
13209;BME280;6669;42.678;23.332;2024-01-06T09:09:32;94185.94;;;7.02;100.00
13209;BME280;6669;42.678;23.332;2024-01-06T09:12:00;94152.00;;;7.14;100.00
13209;BME280;6669;42.678;23.332;2024-01-06T09:14:28;94193.22;;;7.32;100.00
13209;BME280;6669;42.678;23.332;2024-01-06T09:16:58;94153.47;;;7.41;100.00
13209;BME280;6669;42.678;23.332;2024-01-06T09:19:26;94129.84;;;7.52;100.00
13209;BME280;6669;42.678;23.332;2024-01-06T09:21:55;94188.03;;;7.24;100.00
13209;BME280;6669;42.678;23.332;2024-01-06T09:24:23;94145.56;;;7.26;100.00
13209;BME280;6669;42.678;23.332;2024-01-06T09:26:52;94167.53;;;7.06;100.00
13209;BME280;6669;42.678;23.332;2024-01-06T09:29:20;94120.06;;;7.07;100.00
13209;BME280;6669;42.678;23.332;2024-01-06T09:31:48;94148.81;;;7.12;100.00
13209;BME280;6669;42.678;23.332;2024-01-06T09:34:18;94157.19;;;6.89;100.00
13209;BME280;6669;42.678;23.332;2024-01-06T09:36:46;94120.53;;;7.02;100.00
13209;BME280;6669;42.678;23.332;2024-01-06T09:39:15;94140.06;;;7.21;100.00
13209;BME280;6669;42.678;23.332;2024-01-06T09:41:44;94119.84;;;7.33;100.00
13209;BME280;6669;42.678;23.332;2024-01-06T09:44:12;94136.94;;;7.50;100.00
13209;BME280;6669;42.678;23.332;2024-01-06T09:46:43;94135.53;;;7.40;100.00
13209;BME280;6669;42.678;23.332;2024-01-06T09:49:11;94121.13;;;7.53;100.00
13209;BME280;6669;42.678;23.332;2024-01-06T09:51:44;94121.59;;;7.49;100.00
13209;BME280;6669;42.678;23.332;2024-01-06T09:54:22;94135.34;;;7.41;100.00
13209;BME280;6669;42.678;23.332;2024-01-06T09:56:51;94110.47;;;7.48;100.00
13209;BME280;6669;42.678;23.332;2024-01-06T09:59:19;94082.28;;;7.70;100.00
13209;BME280;6669;42.678;23.332;2024-01-06T10:01:48;94114.34;;;7.52;100.00
13209;BME280;6669;42.678;23.332;2024-01-06T10:04:19;94095.69;;;6.93;100.00
13209;BME280;6669;42.678;23.332;2024-01-06T10:06:52;94068.13;;;7.33;100.00
13209;BME280;6669;42.678;23.332;2024-01-06T10:09:26;94102.25;;;7.20;100.00
13209;BME280;6669;42.678;23.332;2024-01-06T10:11:55;94089.13;;;7.46;100.00
13209;BME280;6669;42.678;23.332;2024-01-06T10:14:25;94068.44;;;7.38;100.00
13209;BME280;6669;42.678;23.332;2024-01-06T10:16:53;94077.47;;;7.59;100.00
13209;BME280;6669;42.678;23.332;2024-01-06T10:19:23;94097.19;;;7.51;100.00
13209;BME280;6669;42.678;23.332;2024-01-06T10:21:53;94074.06;;;7.58;100.00
13209;BME280;6669;42.678;23.332;2024-01-06T10:24:23;94015.16;;;7.68;100.00
13209;BME280;6669;42.678;23.332;2024-01-06T10:26:51;94091.56;;;7.40;100.00
13209;BME280;6669;42.678;23.332;2024-01-06T10:29:19;94063.59;;;7.43;100.00
13209;BME280;6669;42.678;23.332;2024-01-06T10:31:48;94033.75;;;7.72;100.00
13209;BME280;6669;42.678;23.332;2024-01-06T10:34:21;94064.72;;;7.89;100.00
13209;BME280;6669;42.678;23.332;2024-01-06T10:36:49;94039.16;;;8.17;100.00
13209;BME280;6669;42.678;23.332;2024-01-06T10:39:20;94045.63;;;8.44;100.00
13209;BME280;6669;42.678;23.332;2024-01-06T10:41:50;94053.31;;;8.61;100.00
13209;BME280;6669;42.678;23.332;2024-01-06T10:44:21;94040.69;;;8.81;100.00
13209;BME280;6669;42.678;23.332;2024-01-06T10:46:49;94021.72;;;8.80;100.00
13209;BME280;6669;42.678;23.332;2024-01-06T10:49:20;94033.03;;;9.03;100.00
13209;BME280;6669;42.678;23.332;2024-01-06T10:51:51;94024.00;;;9.13;100.00
13209;BME280;6669;42.678;23.332;2024-01-06T10:54:23;94021.16;;;9.08;100.00
13209;BME280;6669;42.678;23.332;2024-01-06T10:56:53;94022.84;;;9.16;100.00
13209;BME280;6669;42.678;23.332;2024-01-06T10:59:23;94011.25;;;9.27;100.00
13209;BME280;6669;42.678;23.332;2024-01-06T11:01:54;94018.41;;;9.40;100.00
13209;BME280;6669;42.678;23.332;2024-01-06T11:04:23;94015.97;;;9.53;100.00
13209;BME280;6669;42.678;23.332;2024-01-06T11:06:52;94011.78;;;9.52;100.00
13209;BME280;6669;42.678;23.332;2024-01-06T11:09:26;93991.63;;;9.54;100.00
13209;BME280;6669;42.678;23.332;2024-01-06T11:11:58;93987.91;;;9.27;100.00
13209;BME280;6669;42.678;23.332;2024-01-06T11:14:27;93997.13;;;9.29;100.00
13209;BME280;6669;42.678;23.332;2024-01-06T11:16:55;94000.66;;;9.58;100.00
13209;BME280;6669;42.678;23.332;2024-01-06T11:19:43;93975.19;;;9.84;100.00
13209;BME280;6669;42.678;23.332;2024-01-06T11:22:21;93986.66;;;9.89;100.00
13209;BME280;6669;42.678;23.332;2024-01-06T11:24:53;93968.38;;;10.19;100.00
13209;BME280;6669;42.678;23.332;2024-01-06T11:27:24;93961.84;;;10.45;100.00
13209;BME280;6669;42.678;23.332;2024-01-06T11:29:56;93992.47;;;10.13;100.00
13209;BME280;6669;42.678;23.332;2024-01-06T11:32:28;93935.47;;;10.26;100.00
13209;BME280;6669;42.678;23.332;2024-01-06T11:35:05;93948.22;;;10.43;100.00
13209;BME280;6669;42.678;23.332;2024-01-06T11:37:36;93987.16;;;10.00;100.00
13209;BME280;6669;42.678;23.332;2024-01-06T11:40:10;93935.22;;;10.21;100.00
13209;BME280;6669;42.678;23.332;2024-01-06T11:42:41;93934.28;;;10.29;100.00
13209;BME280;6669;42.678;23.332;2024-01-06T11:45:10;93956.53;;;9.95;100.00
13209;BME280;6669;42.678;23.332;2024-01-06T11:47:39;93912.41;;;10.17;100.00
13209;BME280;6669;42.678;23.332;2024-01-06T11:50:08;93917.53;;;10.31;100.00
13209;BME280;6669;42.678;23.332;2024-01-06T11:52:37;93922.06;;;10.44;100.00
13209;BME280;6669;42.678;23.332;2024-01-06T11:55:06;93907.28;;;10.45;100.00
13209;BME280;6669;42.678;23.332;2024-01-06T11:57:37;93917.66;;;10.73;100.00
13209;BME280;6669;42.678;23.332;2024-01-06T12:00:06;93888.56;;;11.33;100.00
13209;BME280;6669;42.678;23.332;2024-01-06T12:02:35;93900.91;;;11.80;100.00
13209;BME280;6669;42.678;23.332;2024-01-06T12:05:03;93898.00;;;12.09;100.00
13209;BME280;6669;42.678;23.332;2024-01-06T12:07:32;93889.97;;;12.45;100.00
13209;BME280;6669;42.678;23.332;2024-01-06T12:10:02;93882.34;;;12.50;100.00
13209;BME280;6669;42.678;23.332;2024-01-06T12:12:31;93868.53;;;12.42;100.00
13209;BME280;6669;42.678;23.332;2024-01-06T12:15:01;93861.13;;;12.19;100.00
13209;BME280;6669;42.678;23.332;2024-01-06T12:17:30;93849.84;;;11.92;100.00
13209;BME280;6669;42.678;23.332;2024-01-06T12:19:59;93844.03;;;11.76;100.00
13209;BME280;6669;42.678;23.332;2024-01-06T12:22:28;93848.00;;;11.52;100.00
13209;BME280;6669;42.678;23.332;2024-01-06T12:24:58;93890.13;;;11.27;100.00
13209;BME280;6669;42.678;23.332;2024-01-06T12:27:27;93886.38;;;10.88;100.00
13209;BME280;6669;42.678;23.332;2024-01-06T12:29:55;93889.34;;;10.85;100.00
13209;BME280;6669;42.678;23.332;2024-01-06T12:32:25;93896.41;;;10.63;100.00
13209;BME280;6669;42.678;23.332;2024-01-06T12:34:54;93886.56;;;10.58;100.00
13209;BME280;6669;42.678;23.332;2024-01-06T12:37:22;93893.34;;;10.53;100.00
13209;BME280;6669;42.678;23.332;2024-01-06T12:39:51;93875.25;;;10.38;100.00
13209;BME280;6669;42.678;23.332;2024-01-06T12:42:19;93880.34;;;10.53;100.00
13209;BME280;6669;42.678;23.332;2024-01-06T12:44:50;93887.53;;;10.51;100.00
13209;BME280;6669;42.678;23.332;2024-01-06T12:47:19;93871.88;;;10.72;100.00
13209;BME280;6669;42.678;23.332;2024-01-06T12:49:48;93858.53;;;11.24;100.00
13209;BME280;6669;42.678;23.332;2024-01-06T12:52:17;93848.00;;;11.66;100.00
13209;BME280;6669;42.678;23.332;2024-01-06T12:54:45;93831.41;;;11.73;100.00
13209;BME280;6669;42.678;23.332;2024-01-06T12:57:13;93853.03;;;11.87;100.00
13209;BME280;6669;42.678;23.332;2024-01-06T12:59:42;93852.66;;;11.84;100.00
13209;BME280;6669;42.678;23.332;2024-01-06T13:02:10;93849.03;;;11.71;100.00
13209;BME280;6669;42.678;23.332;2024-01-06T13:04:39;93848.44;;;11.83;100.00
13209;BME280;6669;42.678;23.332;2024-01-06T13:07:08;93850.69;;;11.99;100.00
13209;BME280;6669;42.678;23.332;2024-01-06T13:09:37;93844.28;;;12.49;100.00